Time;durP1;ratioP1;P1;durP2;ratioP2;P2;SDS_P1;SDS_P2;PMS_P1;PMS_P2;Temp;Humidity;BMP_temperature;BMP_pressure;BME280_temperature;BME280_humidity;BME280_pressure;Samples;Min_cycle;Max_cycle;Signal;HPM_P1;HPM_P2
2021/09/12 00:00:29;;;;;;;;;;;17.50;98.60;;;;;;5039847;28;20612;-75
2021/09/12 00:02:54;;;;;;;;;;;17.50;98.60;;;;;;5056823;28;20440;-75
2021/09/12 00:05:20;;;;;;;;;;;17.40;98.50;;;;;;5057008;28;19974;-75
2021/09/12 00:07:45;;;;;;;;;;;17.50;98.50;;;;;;5057200;28;20000;-75
2021/09/12 00:10:11;;;;;;;;;;;17.50;98.50;;;;;;5058098;28;19916;-75
2021/09/12 00:12:38;;;;;;;;;;;17.50;98.60;;;;;;5056357;28;20379;-75
2021/09/12 00:15:05;;;;;;;;;;;17.50;98.50;;;;;;5056496;28;19916;-74
2021/09/12 00:17:30;;;;;;;;;;;17.60;98.50;;;;;;5055739;28;19986;-75
2021/09/12 00:19:56;;;;;;;;;;;17.60;98.50;;;;;;5058283;28;19916;-75
2021/09/12 00:22:21;;;;;;;;;;;17.60;98.50;;;;;;5054466;28;19919;-75
2021/09/12 00:24:46;;;;;;;;;;;17.60;98.50;;;;;;5056665;28;19939;-75
2021/09/12 00:27:12;;;;;;;;;;;17.60;98.40;;;;;;5059897;28;20427;-75
2021/09/12 00:29:37;;;;;;;;;;;17.70;98.40;;;;;;5061128;28;20042;-75
2021/09/12 00:32:03;;;;;;;;;;;17.70;98.50;;;;;;5060766;28;20298;-75
2021/09/12 00:34:28;;;;;;;;;;;17.70;98.40;;;;;;5060197;28;19969;-75
2021/09/12 00:36:54;;;;;;;;;;;17.70;98.40;;;;;;5042737;28;19912;-75
2021/09/12 00:39:19;;;;;;;;;;;17.70;98.40;;;;;;5041584;28;20376;-75
2021/09/12 00:41:45;;;;;;;;;;;17.70;98.50;;;;;;5043265;28;20291;-75
2021/09/12 00:44:12;;;;;;;;;;;17.70;98.40;;;;;;5059792;28;19920;-75
2021/09/12 00:46:41;;;;;;;;;;;17.70;98.40;;;;;;5059820;28;20007;-75
2021/09/12 00:49:07;;;;;;;;;;;17.70;98.50;;;;;;5061282;28;20370;-75
2021/09/12 00:51:32;;;;;;;;;;;17.70;98.50;;;;;;5060735;28;19956;-75
2021/09/12 00:53:59;;;;;;;;;;;17.70;98.50;;;;;;5058513;28;20276;-75
2021/09/12 00:56:28;;;;;;;;;;;17.70;98.50;;;;;;5060632;28;19916;-75
2021/09/12 00:58:53;;;;;;;;;;;17.80;98.50;;;;;;5061079;28;20055;-75
2021/09/12 01:01:19;;;;;;;;;;;17.80;98.50;;;;;;5060992;28;20411;-75
2021/09/12 01:03:45;;;;;;;;;;;17.80;98.50;;;;;;5060778;28;19920;-75
2021/09/12 01:06:10;;;;;;;;;;;17.80;98.50;;;;;;5060270;28;19908;-75
2021/09/12 01:08:35;;;;;;;;;;;17.80;98.50;;;;;;5059688;28;19916;-75
2021/09/12 01:11:01;;;;;;;;;;;17.80;98.60;;;;;;5058916;28;19909;-75
2021/09/12 01:13:26;;;;;;;;;;;17.80;98.50;;;;;;5060292;28;20259;-75
2021/09/12 01:15:52;;;;;;;;;;;17.80;98.60;;;;;;5041316;28;19932;-75
2021/09/12 01:18:17;;;;;;;;;;;17.80;98.50;;;;;;5059406;28;19982;-75
2021/09/12 01:20:44;;;;;;;;;;;17.80;98.60;;;;;;5057228;28;20237;-76
2021/09/12 01:23:10;;;;;;;;;;;17.80;98.50;;;;;;5058307;28;19920;-75
2021/09/12 01:25:36;;;;;;;;;;;17.80;98.50;;;;;;5054777;28;19963;-76
2021/09/12 01:28:02;;;;;;;;;;;17.80;98.50;;;;;;5055959;28;20061;-71
2021/09/12 01:30:28;;;;;;;;;;;17.80;98.60;;;;;;5059009;28;19913;-72
2021/09/12 01:32:53;;;;;;;;;;;18.00;98.40;;;;;;5058505;28;20440;-71
2021/09/12 01:35:19;;;;;;;;;;;18.20;98.20;;;;;;5056905;28;19912;-72
2021/09/12 01:37:44;;;;;;;;;;;18.30;98.00;;;;;;5054257;28;19920;-71
2021/09/12 01:40:10;;;;;;;;;;;18.50;97.80;;;;;;5059722;28;20362;-71
2021/09/12 01:42:35;;;;;;;;;;;18.60;97.70;;;;;;5059241;28;19920;-71
2021/09/12 01:45:01;;;;;;;;;;;18.70;97.80;;;;;;5057814;28;19917;-71
2021/09/12 01:47:26;;;;;;;;;;;18.80;97.40;;;;;;5058953;28;20383;-72
2021/09/12 01:49:52;;;;;;;;;;;18.80;97.30;;;;;;5060320;28;19955;-72
2021/09/12 01:52:17;;;;;;;;;;;18.90;97.20;;;;;;5057121;28;20024;-72
2021/09/12 01:54:43;;;;;;;;;;;18.90;97.20;;;;;;5052879;28;19930;-71
2021/09/12 01:57:08;;;;;;;;;;;18.90;97.10;;;;;;5056825;28;20490;-72
2021/09/12 01:59:34;;;;;;;;;;;19.00;97.10;;;;;;5058105;28;19923;-72
2021/09/12 02:01:59;;;;;;;;;;;19.00;97.10;;;;;;5041204;28;19920;-71
2021/09/12 02:04:25;;;;;;;;;;;19.00;97.00;;;;;;5056780;28;20011;-71
2021/09/12 02:06:50;;;;;;;;;;;19.00;97.00;;;;;;5058464;28;19913;-71
2021/09/12 02:09:15;;;;;;;;;;;19.00;96.90;;;;;;5056569;28;20344;-71
2021/09/12 02:11:41;;;;;;;;;;;19.00;96.90;;;;;;5057130;28;20244;-71
2021/09/12 02:14:06;;;;;;;;;;;19.00;96.90;;;;;;5024368;28;20375;-71
2021/09/12 02:16:32;;;;;;;;;;;19.00;96.80;;;;;;5058487;28;19923;-71
2021/09/12 02:18:57;;;;;;;;;;;19.00;96.80;;;;;;5059173;28;19916;-71
2021/09/12 02:21:23;;;;;;;;;;;19.00;96.80;;;;;;5057496;28;19909;-71
2021/09/12 02:23:48;;;;;;;;;;;19.00;96.80;;;;;;5055007;28;19921;-72
2021/09/12 02:26:14;;;;;;;;;;;19.00;96.80;;;;;;5056178;28;19916;-72
2021/09/12 02:28:39;;;;;;;;;;;19.00;96.80;;;;;;5058927;28;20394;-71
2021/09/12 02:31:05;;;;;;;;;;;19.10;96.80;;;;;;5053262;28;19921;-71
2021/09/12 02:33:30;;;;;;;;;;;19.10;96.70;;;;;;5056348;28;20379;-71
2021/09/12 02:35:55;;;;;;;;;;;19.00;96.60;;;;;;5057943;28;19931;-71
2021/09/12 02:38:21;;;;;;;;;;;19.00;96.60;;;;;;5059145;28;19920;-71
2021/09/12 02:40:46;;;;;;;;;;;19.00;96.60;;;;;;5056536;28;19927;-71
2021/09/12 02:43:12;;;;;;;;;;;19.00;96.60;;;;;;5057475;28;19919;-71
2021/09/12 02:45:37;;;;;;;;;;;18.90;96.70;;;;;;5056531;28;19920;-71
2021/09/12 02:48:03;;;;;;;;;;;18.90;96.70;;;;;;5057514;28;19917;-71
2021/09/12 02:50:28;;;;;;;;;;;18.90;96.70;;;;;;5053259;28;19912;-71
2021/09/12 02:52:54;;;;;;;;;;;18.90;96.80;;;;;;5056751;28;20019;-71
2021/09/12 02:55:19;;;;;;;;;;;18.90;96.80;;;;;;5057174;28;20371;-71
2021/09/12 02:57:45;;;;;;;;;;;18.90;96.80;;;;;;5059166;28;19920;-71
2021/09/12 03:00:10;;;;;;;;;;;18.90;96.80;;;;;;5056255;28;20430;-71
2021/09/12 03:02:36;;;;;;;;;;;18.90;96.80;;;;;;5055245;28;20417;-71
2021/09/12 03:05:01;;;;;;;;;;;18.90;96.70;;;;;;5053983;28;19936;-71
2021/09/12 03:07:27;;;;;;;;;;;19.00;96.70;;;;;;5056486;28;19951;-71
2021/09/12 03:09:52;;;;;;;;;;;19.00;96.60;;;;;;5059143;28;19909;-71
2021/09/12 03:12:18;;;;;;;;;;;19.00;96.70;;;;;;5057590;28;19983;-72
2021/09/12 03:14:44;;;;;;;;;;;19.00;96.70;;;;;;5052701;28;19985;-71
2021/09/12 03:17:09;;;;;;;;;;;19.00;96.60;;;;;;5058259;28;20031;-71
2021/09/12 03:19:35;;;;;;;;;;;19.00;96.60;;;;;;5053570;28;20390;-71
2021/09/12 03:22:00;;;;;;;;;;;19.00;96.70;;;;;;5056804;28;19913;-71
2021/09/12 03:24:26;;;;;;;;;;;19.00;96.60;;;;;;5057032;28;19927;-71
2021/09/12 03:26:51;;;;;;;;;;;19.00;96.60;;;;;;5055257;28;20294;-71
2021/09/12 03:29:16;;;;;;;;;;;19.00;96.60;;;;;;5058480;28;19912;-71
2021/09/12 03:31:42;;;;;;;;;;;19.00;96.60;;;;;;5056066;28;20295;-72
2021/09/12 03:34:07;;;;;;;;;;;18.90;96.60;;;;;;5052603;28;19928;-71
2021/09/12 03:36:33;;;;;;;;;;;18.90;96.70;;;;;;5055124;28;20360;-72
2021/09/12 03:38:58;;;;;;;;;;;18.90;96.70;;;;;;5056211;28;19916;-71
2021/09/12 03:41:24;;;;;;;;;;;18.90;96.80;;;;;;5055212;28;20372;-71
2021/09/12 03:43:49;;;;;;;;;;;18.90;96.70;;;;;;5058158;28;19952;-72
2021/09/12 03:46:14;;;;;;;;;;;18.90;96.70;;;;;;5055168;28;20075;-71
2021/09/12 03:48:40;;;;;;;;;;;18.90;96.70;;;;;;5057106;28;19924;-72
2021/09/12 03:51:05;;;;;;;;;;;18.90;96.70;;;;;;5054030;28;19921;-71
2021/09/12 03:53:31;;;;;;;;;;;18.90;96.70;;;;;;5055181;28;19912;-71
2021/09/12 03:55:56;;;;;;;;;;;19.00;96.70;;;;;;5055906;28;19916;-71
2021/09/12 03:58:22;;;;;;;;;;;18.90;96.70;;;;;;5057522;28;19927;-71
2021/09/12 04:00:47;;;;;;;;;;;18.90;96.70;;;;;;5059366;28;19940;-72
2021/09/12 04:03:14;;;;;;;;;;;18.90;96.70;;;;;;5059732;28;20029;-72
2021/09/12 04:05:40;;;;;;;;;;;18.90;96.70;;;;;;5061908;28;20386;-71
2021/09/12 04:08:05;;;;;;;;;;;18.90;96.70;;;;;;5061919;28;19921;-72
2021/09/12 04:10:31;;;;;;;;;;;18.90;96.70;;;;;;5062805;28;19923;-72
2021/09/12 04:12:56;;;;;;;;;;;18.90;96.70;;;;;;5063603;28;19909;-72
2021/09/12 04:15:22;;;;;;;;;;;18.90;96.70;;;;;;5063614;28;19917;-72
2021/09/12 04:17:47;;;;;;;;;;;18.90;96.70;;;;;;5064624;28;19923;-72
2021/09/12 04:20:13;;;;;;;;;;;18.90;96.70;;;;;;5061814;28;20108;-72
2021/09/12 04:22:38;;;;;;;;;;;18.80;96.70;;;;;;5063612;28;20319;-72
2021/09/12 04:25:04;;;;;;;;;;;18.80;96.80;;;;;;5058717;28;20284;-72
2021/09/12 04:27:29;;;;;;;;;;;18.80;96.70;;;;;;5064107;28;20007;-72
2021/09/12 04:29:54;;;;;;;;;;;18.80;96.80;;;;;;5061672;28;19913;-72
2021/09/12 04:32:20;;;;;;;;;;;18.90;96.80;;;;;;5064358;28;19928;-72
2021/09/12 04:34:47;;;;;;;;;;;18.90;96.80;;;;;;5065364;28;19966;-72
2021/09/12 04:37:13;;;;;;;;;;;18.90;96.80;;;;;;5067078;28;20405;-72
2021/09/12 04:39:38;;;;;;;;;;;18.90;96.80;;;;;;5061360;28;20465;-72
2021/09/12 04:42:04;;;;;;;;;;;18.90;96.70;;;;;;5062923;28;19978;-72
2021/09/12 04:44:30;;;;;;;;;;;18.90;96.80;;;;;;5059784;28;20470;-71
2021/09/12 04:46:55;;;;;;;;;;;18.80;96.80;;;;;;5061497;28;20411;-72
2021/09/12 04:49:21;;;;;;;;;;;18.90;96.90;;;;;;5064689;28;19913;-71
2021/09/12 04:51:46;;;;;;;;;;;18.80;96.90;;;;;;5063579;28;20394;-72
2021/09/12 04:54:11;;;;;;;;;;;18.80;96.80;;;;;;5061376;28;20050;-72
2021/09/12 04:56:37;;;;;;;;;;;18.80;96.80;;;;;;5063423;28;19943;-71
2021/09/12 04:59:02;;;;;;;;;;;18.80;96.90;;;;;;5063510;28;20319;-72
2021/09/12 05:01:28;;;;;;;;;;;18.80;96.80;;;;;;5062762;28;19916;-71
2021/09/12 05:03:54;;;;;;;;;;;18.80;96.90;;;;;;5063686;28;19962;-71
2021/09/12 05:06:20;;;;;;;;;;;18.90;96.90;;;;;;5061336;28;20374;-72
2021/09/12 05:08:45;;;;;;;;;;;18.90;96.90;;;;;;5062206;28;19966;-71
2021/09/12 05:11:10;;;;;;;;;;;18.90;96.90;;;;;;5064520;28;19912;-72
2021/09/12 05:13:36;;;;;;;;;;;18.90;96.90;;;;;;5058870;28;19924;-71
2021/09/12 05:16:02;;;;;;;;;;;18.90;96.90;;;;;;5056758;28;19920;-72
2021/09/12 05:18:28;;;;;;;;;;;18.90;96.90;;;;;;5056669;28;20094;-71
2021/09/12 05:20:53;;;;;;;;;;;18.90;96.90;;;;;;5060499;28;19924;-72
2021/09/12 05:23:19;;;;;;;;;;;18.90;97.00;;;;;;5056321;28;19995;-71
2021/09/12 05:25:44;;;;;;;;;;;18.90;97.00;;;;;;5057652;28;19921;-71
2021/09/12 05:28:09;;;;;;;;;;;18.80;96.90;;;;;;5061079;28;19909;-71
2021/09/12 05:30:35;;;;;;;;;;;18.80;97.00;;;;;;5060038;28;19921;-71
2021/09/12 05:33:00;;;;;;;;;;;18.80;97.00;;;;;;5056692;28;19955;-71
2021/09/12 05:35:26;;;;;;;;;;;18.80;97.00;;;;;;5056484;28;19978;-71
2021/09/12 05:37:51;;;;;;;;;;;18.90;97.00;;;;;;5059503;28;19920;-69
2021/09/12 05:40:17;;;;;;;;;;;18.80;97.00;;;;;;5058340;28;20401;-71
2021/09/12 05:42:42;;;;;;;;;;;18.90;97.00;;;;;;5059177;28;20324;-71
2021/09/12 05:45:08;;;;;;;;;;;18.90;97.10;;;;;;5058231;28;19916;-72
2021/09/12 05:47:34;;;;;;;;;;;18.90;97.10;;;;;;5057212;28;19917;-73
2021/09/12 05:50:00;;;;;;;;;;;18.90;97.10;;;;;;5056300;28;19913;-72
2021/09/12 05:52:25;;;;;;;;;;;18.90;97.10;;;;;;5039802;28;19916;-73
2021/09/12 05:54:51;;;;;;;;;;;18.90;97.10;;;;;;5058146;28;20042;-72
2021/09/12 05:57:16;;;;;;;;;;;19.00;97.30;;;;;;5058207;28;19920;-71
2021/09/12 05:59:42;;;;;;;;;;;19.00;97.10;;;;;;5055831;28;19925;-72
2021/09/12 06:02:07;;;;;;;;;;;19.00;97.00;;;;;;5056631;28;19916;-72
2021/09/12 06:04:33;;;;;;;;;;;19.10;97.20;;;;;;5058893;28;19947;-72
2021/09/12 06:06:58;;;;;;;;;;;19.20;97.00;;;;;;5055172;28;19985;-72
2021/09/12 06:09:24;;;;;;;;;;;19.20;97.00;;;;;;5058415;28;20314;-71
2021/09/12 06:11:50;;;;;;;;;;;19.20;96.90;;;;;;5058447;28;19920;-72
2021/09/12 06:14:16;;;;;;;;;;;19.30;96.90;;;;;;5059016;28;19959;-72
2021/09/12 06:16:41;;;;;;;;;;;19.30;96.80;;;;;;5059135;28;19981;-71
2021/09/12 06:19:06;;;;;;;;;;;19.20;96.90;;;;;;5060240;28;19912;-69
2021/09/12 06:21:32;;;;;;;;;;;19.20;96.90;;;;;;5055229;28;19917;-70
2021/09/12 06:23:58;;;;;;;;;;;19.20;97.20;;;;;;5057004;28;19959;-70
2021/09/12 06:26:24;;;;;;;;;;;19.30;96.90;;;;;;5058625;28;19978;-71
2021/09/12 06:28:49;;;;;;;;;;;19.30;96.90;;;;;;5059269;28;20411;-71
2021/09/12 06:31:15;;;;;;;;;;;19.30;96.80;;;;;;5057187;28;19954;-71
2021/09/12 06:33:40;;;;;;;;;;;19.30;96.80;;;;;;5053539;28;20229;-71
2021/09/12 06:36:06;;;;;;;;;;;19.40;96.90;;;;;;5055366;28;19920;-71
2021/09/12 06:38:31;;;;;;;;;;;19.30;96.90;;;;;;5056790;28;19920;-70
2021/09/12 06:40:58;;;;;;;;;;;19.30;96.90;;;;;;5058584;28;19917;-71
2021/09/12 06:43:23;;;;;;;;;;;19.40;96.90;;;;;;5055851;28;20257;-70
2021/09/12 06:45:49;;;;;;;;;;;19.40;96.90;;;;;;5057831;28;19912;-70
2021/09/12 06:48:14;;;;;;;;;;;19.40;96.80;;;;;;5054749;28;19912;-70
2021/09/12 06:50:40;;;;;;;;;;;19.50;96.90;;;;;;5057088;28;19928;-70
2021/09/12 06:53:05;;;;;;;;;;;19.50;96.80;;;;;;5024103;28;19981;-70
2021/09/12 06:55:31;;;;;;;;;;;19.50;96.80;;;;;;5058166;28;19917;-70
2021/09/12 06:57:56;;;;;;;;;;;19.50;96.80;;;;;;5056154;28;19916;-70
2021/09/12 07:00:22;;;;;;;;;;;19.60;96.80;;;;;;5058031;28;19912;-70
2021/09/12 07:02:47;;;;;;;;;;;19.60;96.80;;;;;;5057967;28;19912;-70
2021/09/12 07:05:13;;;;;;;;;;;19.60;96.80;;;;;;5056066;28;19917;-70
2021/09/12 07:07:38;;;;;;;;;;;19.60;96.80;;;;;;5057258;28;19942;-70
2021/09/12 07:10:04;;;;;;;;;;;19.70;96.80;;;;;;5057756;28;19909;-70
2021/09/12 07:12:30;;;;;;;;;;;19.70;96.80;;;;;;5056612;28;20412;-70
2021/09/12 07:14:55;;;;;;;;;;;19.70;96.80;;;;;;5057454;28;19921;-70
2021/09/12 07:17:20;;;;;;;;;;;19.80;96.80;;;;;;5056960;28;19920;-70
2021/09/12 07:19:46;;;;;;;;;;;19.90;96.80;;;;;;5057127;28;19920;-70
2021/09/12 07:22:11;;;;;;;;;;;19.90;96.70;;;;;;5036838;28;19916;-70
2021/09/12 07:24:39;;;;;;;;;;;20.00;96.70;;;;;;5055240;28;19992;-70
2021/09/12 07:27:04;;;;;;;;;;;20.00;96.60;;;;;;5038657;28;19943;-70
2021/09/12 07:29:30;;;;;;;;;;;20.00;96.60;;;;;;5057362;28;19951;-70
2021/09/12 07:31:56;;;;;;;;;;;20.10;96.50;;;;;;5057391;28;19916;-70
2021/09/12 07:34:22;;;;;;;;;;;20.20;96.50;;;;;;5054569;28;19936;-70
2021/09/12 07:36:47;;;;;;;;;;;20.20;96.40;;;;;;5053955;28;19920;-70
2021/09/12 07:39:13;;;;;;;;;;;20.30;96.40;;;;;;5056756;28;19916;-70
2021/09/12 07:41:39;;;;;;;;;;;20.30;96.30;;;;;;5056348;28;19925;-71
2021/09/12 07:44:05;;;;;;;;;;;20.40;96.30;;;;;;5056946;28;19960;-71
2021/09/12 07:46:30;;;;;;;;;;;20.50;96.20;;;;;;5054332;28;19990;-70
2021/09/12 07:48:56;;;;;;;;;;;20.50;96.20;;;;;;5057681;28;20474;-70
2021/09/12 07:51:21;;;;;;;;;;;20.50;96.10;;;;;;5054189;28;20573;-71
2021/09/12 07:53:46;;;;;;;;;;;20.50;96.10;;;;;;5053522;28;19968;-70
2021/09/12 07:56:12;;;;;;;;;;;20.50;96.10;;;;;;5057559;28;19913;-70
2021/09/12 07:58:37;;;;;;;;;;;20.50;96.10;;;;;;5054835;28;19979;-71
2021/09/12 08:01:03;;;;;;;;;;;20.50;96.10;;;;;;5055824;28;19913;-71
2021/09/12 08:03:28;;;;;;;;;;;20.50;96.00;;;;;;5054969;28;19944;-71
2021/09/12 08:05:53;;;;;;;;;;;20.50;96.10;;;;;;5058256;28;20002;-72
2021/09/12 08:08:19;;;;;;;;;;;20.50;96.10;;;;;;5055737;28;20047;-70
2021/09/12 08:10:45;;;;;;;;;;;20.60;96.10;;;;;;5054409;28;19913;-70
2021/09/12 08:13:10;;;;;;;;;;;20.60;96.00;;;;;;5034343;28;19928;-71
2021/09/12 08:15:36;;;;;;;;;;;20.60;96.00;;;;;;5057985;28;19924;-71
2021/09/12 08:18:01;;;;;;;;;;;20.60;96.00;;;;;;5057353;28;20368;-71
2021/09/12 08:20:26;;;;;;;;;;;20.70;96.00;;;;;;5058075;28;19913;-71
2021/09/12 08:22:52;;;;;;;;;;;20.70;96.00;;;;;;5057498;28;19908;-71
2021/09/12 08:25:17;;;;;;;;;;;20.80;95.90;;;;;;5055692;28;19959;-71
2021/09/12 08:27:43;;;;;;;;;;;20.90;95.90;;;;;;5057727;28;20014;-70
2021/09/12 08:30:09;;;;;;;;;;;21.00;95.80;;;;;;5056934;28;20354;-78
2021/09/12 08:32:34;;;;;;;;;;;21.10;95.70;;;;;;5062591;28;19915;-78
2021/09/12 08:34:59;;;;;;;;;;;21.10;95.60;;;;;;5058678;28;19912;-78
2021/09/12 08:37:25;;;;;;;;;;;21.10;95.50;;;;;;5054266;28;19978;-77
2021/09/12 08:39:50;;;;;;;;;;;21.10;95.50;;;;;;5055678;28;20290;-77
2021/09/12 08:42:17;;;;;;;;;;;21.20;95.40;;;;;;5052528;28;19928;-77
2021/09/12 08:44:49;;;;;;;;;;;21.20;95.40;;;;;;5047178;28;19913;-77
2021/09/12 08:47:15;;;;;;;;;;;21.20;95.30;;;;;;5052711;28;19978;-74
2021/09/12 08:49:42;;;;;;;;;;;21.10;95.50;;;;;;5060478;28;19925;-74
2021/09/12 08:52:07;;;;;;;;;;;21.10;96.00;;;;;;5058608;28;19939;-71
2021/09/12 08:54:33;;;;;;;;;;;20.90;96.60;;;;;;5040498;28;19974;-72
2021/09/12 08:56:58;;;;;;;;;;;20.50;97.30;;;;;;5060520;28;20375;-72
2021/09/12 08:59:28;;;;;;;;;;;20.30;97.90;;;;;;5055695;28;19955;-73
2021/09/12 09:01:54;;;;;;;;;;;20.00;98.60;;;;;;5053168;28;19997;-73
2021/09/12 09:04:20;;;;;;;;;;;19.60;99.10;;;;;;5059397;28;20401;-73
2021/09/12 09:06:45;;;;;;;;;;;19.30;99.20;;;;;;5059046;28;19913;-73
2021/09/12 09:09:11;;;;;;;;;;;18.90;99.30;;;;;;5057368;28;20756;-73
2021/09/12 09:11:40;;;;;;;;;;;18.80;99.90;;;;;;5058576;28;19999;-73
2021/09/12 09:14:11;;;;;;;;;;;18.60;99.90;;;;;;5058726;28;19908;-73
2021/09/12 09:16:36;;;;;;;;;;;18.50;99.90;;;;;;5057912;28;19924;-74
2021/09/12 09:19:04;;;;;;;;;;;18.50;99.90;;;;;;5059197;28;21282;-73
2021/09/12 09:21:38;;;;;;;;;;;18.50;99.90;;;;;;5055972;28;19948;-75
2021/09/12 09:24:07;;;;;;;;;;;18.50;99.90;;;;;;5057961;28;19970;-73
2021/09/12 09:26:35;;;;;;;;;;;18.40;99.90;;;;;;5057678;28;20118;-74
2021/09/12 09:29:00;;;;;;;;;;;18.40;99.90;;;;;;5059024;28;19997;-75
2021/09/12 09:31:26;;;;;;;;;;;18.30;99.90;;;;;;5054637;28;20367;-75
2021/09/12 09:33:51;;;;;;;;;;;18.30;99.90;;;;;;5059249;28;19920;-74
2021/09/12 09:36:18;;;;;;;;;;;18.30;99.90;;;;;;5059401;28;19915;-75
2021/09/12 09:38:46;;;;;;;;;;;18.30;99.90;;;;;;5059722;28;20263;-75
2021/09/12 09:41:12;;;;;;;;;;;18.40;99.90;;;;;;5059821;28;19917;-75
2021/09/12 09:43:51;;;;;;;;;;;18.40;99.90;;;;;;5059666;28;19912;-75
2021/09/12 09:46:28;;;;;;;;;;;18.40;99.90;;;;;;5059460;28;19920;-75
2021/09/12 09:48:54;;;;;;;;;;;18.50;99.90;;;;;;5056803;28;19912;-74
2021/09/12 09:51:20;;;;;;;;;;;18.50;99.90;;;;;;5057870;28;19916;-74
2021/09/12 09:53:46;;;;;;;;;;;18.60;99.90;;;;;;5053943;28;19920;-75
2021/09/12 09:56:12;;;;;;;;;;;18.60;99.90;;;;;;5058515;28;19913;-74
2021/09/12 09:58:37;;;;;;;;;;;18.70;99.90;;;;;;5057337;28;19928;-73
2021/09/12 10:01:03;;;;;;;;;;;18.70;99.90;;;;;;5059317;28;19919;-73
2021/09/12 10:03:29;;;;;;;;;;;18.80;99.90;;;;;;5057973;28;20054;-74
2021/09/12 10:05:54;;;;;;;;;;;18.80;99.90;;;;;;5058704;28;20009;-74
2021/09/12 10:08:20;;;;;;;;;;;18.90;99.90;;;;;;5059803;28;20356;-74
2021/09/12 10:10:46;;;;;;;;;;;18.90;99.90;;;;;;5059836;28;19908;-74
2021/09/12 10:13:12;;;;;;;;;;;18.90;99.90;;;;;;5057562;28;20385;-74
2021/09/12 10:15:38;;;;;;;;;;;19.00;99.90;;;;;;5056506;28;20415;-74
2021/09/12 10:18:04;;;;;;;;;;;19.00;99.90;;;;;;5057791;28;19923;-74
2021/09/12 10:20:30;;;;;;;;;;;19.10;99.90;;;;;;5056962;28;20382;-73
2021/09/12 10:22:57;;;;;;;;;;;19.20;99.90;;;;;;5054746;28;19919;-74
2021/09/12 10:25:26;;;;;;;;;;;19.20;99.90;;;;;;5054797;28;19999;-75
2021/09/12 10:27:59;;;;;;;;;;;19.30;99.90;;;;;;5059139;28;19920;-73
2021/09/12 10:30:38;;;;;;;;;;;19.40;99.90;;;;;;5057017;28;20339;-74
2021/09/12 10:33:06;;;;;;;;;;;19.40;99.90;;;;;;5058176;28;20001;-74
2021/09/12 10:35:45;;;;;;;;;;;19.50;99.90;;;;;;5056344;28;19913;-74
2021/09/12 10:38:11;;;;;;;;;;;19.50;99.90;;;;;;5054552;28;19924;-74
2021/09/12 10:40:49;;;;;;;;;;;19.60;99.90;;;;;;5058409;28;20116;-75
2021/09/12 10:43:26;;;;;;;;;;;19.70;99.90;;;;;;5055303;28;19916;-74
2021/09/12 10:46:01;;;;;;;;;;;19.70;99.90;;;;;;5057847;28;19913;-74
2021/09/12 10:48:27;;;;;;;;;;;19.80;99.90;;;;;;5056272;28;19931;-74
2021/09/12 10:50:53;;;;;;;;;;;19.80;99.80;;;;;;5058149;28;20339;-74
2021/09/12 10:53:38;;;;;;;;;;;19.90;99.70;;;;;;5055420;28;19962;-73
2021/09/12 10:56:04;;;;;;;;;;;20.00;99.60;;;;;;5057407;28;19920;-73
2021/09/12 10:58:31;;;;;;;;;;;20.10;99.40;;;;;;5056521;28;20274;-73
2021/09/12 11:00:58;;;;;;;;;;;20.20;99.30;;;;;;5057728;28;20351;-73
2021/09/12 11:03:23;;;;;;;;;;;20.30;99.30;;;;;;5054680;28;20390;-74
2021/09/12 11:05:49;;;;;;;;;;;20.30;99.30;;;;;;5056233;28;19919;-74
2021/09/12 11:08:14;;;;;;;;;;;20.40;99.20;;;;;;5038740;28;20003;-74
2021/09/12 11:10:41;;;;;;;;;;;20.40;98.90;;;;;;5054565;28;19926;-74
2021/09/12 11:13:07;;;;;;;;;;;20.50;98.60;;;;;;5056149;28;19921;-73
2021/09/12 11:15:32;;;;;;;;;;;20.50;98.50;;;;;;5055676;28;20011;-73
2021/09/12 11:17:58;;;;;;;;;;;20.60;97.50;;;;;;5056837;28;20011;-74
2021/09/12 11:20:43;;;;;;;;;;;20.60;97.20;;;;;;5057973;28;19920;-74
2021/09/12 11:23:09;;;;;;;;;;;20.60;97.00;;;;;;5051372;28;20390;-75
2021/09/12 11:25:34;;;;;;;;;;;20.60;96.60;;;;;;5054359;28;19939;-75
2021/09/12 11:28:01;;;;;;;;;;;20.50;95.90;;;;;;5057762;28;20368;-75
2021/09/12 11:30:26;;;;;;;;;;;20.50;96.30;;;;;;5040261;28;20264;-75
2021/09/12 11:32:51;;;;;;;;;;;20.40;96.40;;;;;;5039149;28;19979;-75
2021/09/12 11:35:17;;;;;;;;;;;20.40;96.80;;;;;;5054555;28;19913;-75
2021/09/12 11:37:42;;;;;;;;;;;20.40;97.00;;;;;;5039322;28;19920;-74
2021/09/12 11:40:08;;;;;;;;;;;20.50;97.10;;;;;;5053735;28;19920;-74
2021/09/12 11:42:33;;;;;;;;;;;20.50;96.90;;;;;;5053994;28;19916;-73
2021/09/12 11:44:59;;;;;;;;;;;20.50;97.00;;;;;;5055197;28;20316;-74
2021/09/12 11:47:25;;;;;;;;;;;20.60;97.00;;;;;;5052643;28;19935;-75
2021/09/12 11:50:01;;;;;;;;;;;20.60;97.00;;;;;;5056374;28;20264;-75
2021/09/12 11:52:37;;;;;;;;;;;20.70;97.10;;;;;;5056714;28;19924;-75
2021/09/12 11:55:27;;;;;;;;;;;20.80;97.10;;;;;;5053579;28;20011;-75
2021/09/12 11:57:59;;;;;;;;;;;20.90;96.90;;;;;;5055374;28;20308;-75
2021/09/12 12:00:25;;;;;;;;;;;21.00;96.50;;;;;;5055965;28;20001;-75
2021/09/12 12:02:50;;;;;;;;;;;21.10;96.30;;;;;;5056754;28;19960;-75
2021/09/12 12:05:16;;;;;;;;;;;21.20;96.20;;;;;;5054760;28;20220;-76
2021/09/12 12:07:41;;;;;;;;;;;21.30;95.70;;;;;;5055584;28;19984;-75
2021/09/12 12:10:07;;;;;;;;;;;21.40;95.40;;;;;;5054830;28;19925;-76
2021/09/12 12:12:36;;;;;;;;;;;21.40;94.60;;;;;;5037589;28;19935;-77
2021/09/12 12:15:04;;;;;;;;;;;21.50;94.80;;;;;;5051435;28;19919;-76
2021/09/12 12:17:30;;;;;;;;;;;21.50;94.50;;;;;;5055023;28;19916;-76
2021/09/12 12:19:56;;;;;;;;;;;21.60;94.70;;;;;;5057452;28;19909;-76
2021/09/12 12:22:23;;;;;;;;;;;21.60;94.50;;;;;;5057456;28;20553;-76
2021/09/12 12:24:53;;;;;;;;;;;21.70;93.60;;;;;;5060395;28;20065;-76
2021/09/12 12:27:18;;;;;;;;;;;21.70;93.10;;;;;;5060090;28;19951;-76
2021/09/12 12:29:45;;;;;;;;;;;21.70;92.90;;;;;;5059240;28;20009;-76
2021/09/12 12:32:11;;;;;;;;;;;21.60;93.00;;;;;;5059920;28;19912;-76
2021/09/12 12:34:38;;;;;;;;;;;21.60;93.10;;;;;;5041196;28;20383;-76
2021/09/12 12:37:04;;;;;;;;;;;21.60;93.30;;;;;;5059500;28;19973;-76
2021/09/12 12:39:29;;;;;;;;;;;21.60;93.30;;;;;;5059893;28;19952;-76
2021/09/12 12:41:55;;;;;;;;;;;21.70;93.20;;;;;;5061606;28;19912;-76
2021/09/12 12:44:21;;;;;;;;;;;21.70;92.50;;;;;;5060544;28;19917;-77
2021/09/12 12:46:47;;;;;;;;;;;21.50;92.40;;;;;;5059141;28;19935;-76
2021/09/12 12:49:21;;;;;;;;;;;21.40;92.70;;;;;;5042924;28;20485;-75
2021/09/12 12:51:59;;;;;;;;;;;21.40;93.10;;;;;;5061520;28;20282;-75
2021/09/12 12:54:30;;;;;;;;;;;21.50;92.70;;;;;;5060982;28;19920;-77
2021/09/12 12:56:55;;;;;;;;;;;21.60;92.90;;;;;;5060921;28;19927;-75
2021/09/12 12:59:20;;;;;;;;;;;21.70;92.90;;;;;;5061402;28;19917;-76
2021/09/12 13:01:46;;;;;;;;;;;21.80;92.20;;;;;;5061462;28;19909;-76
2021/09/12 13:04:11;;;;;;;;;;;21.80;91.60;;;;;;5058714;28;19920;-77
2021/09/12 13:06:37;;;;;;;;;;;21.90;91.70;;;;;;5061074;28;19915;-76
2021/09/12 13:09:02;;;;;;;;;;;21.90;90.80;;;;;;5057939;28;19924;-75
2021/09/12 13:11:28;;;;;;;;;;;22.00;91.30;;;;;;5058948;28;20128;-76
2021/09/12 13:13:53;;;;;;;;;;;22.10;91.40;;;;;;5056758;28;19917;-77
2021/09/12 13:16:19;;;;;;;;;;;22.10;91.30;;;;;;5058031;28;20020;-75
2021/09/12 13:18:45;;;;;;;;;;;22.10;91.60;;;;;;5055638;28;20030;-75
2021/09/12 13:21:10;;;;;;;;;;;22.20;91.50;;;;;;5056220;28;19917;-75
2021/09/12 13:23:36;;;;;;;;;;;22.20;91.40;;;;;;5056579;28;19923;-76
2021/09/12 13:26:01;;;;;;;;;;;22.30;91.20;;;;;;5058457;28;20008;-75
2021/09/12 13:28:27;;;;;;;;;;;22.40;91.40;;;;;;5059976;28;19944;-78
2021/09/12 13:30:53;;;;;;;;;;;22.40;91.20;;;;;;5059868;28;19924;-76
2021/09/12 13:33:18;;;;;;;;;;;22.40;90.50;;;;;;5054800;28;19920;-75
2021/09/12 13:35:44;;;;;;;;;;;22.40;90.60;;;;;;5052853;28;19916;-75
2021/09/12 13:38:10;;;;;;;;;;;22.50;90.90;;;;;;5059021;28;20363;-77
2021/09/12 13:40:35;;;;;;;;;;;22.50;91.10;;;;;;5056963;28;19931;-77
2021/09/12 13:43:01;;;;;;;;;;;22.50;90.80;;;;;;5058550;28;20376;-77
2021/09/12 13:45:26;;;;;;;;;;;22.50;90.90;;;;;;5058308;28;20419;-77
2021/09/12 13:47:52;;;;;;;;;;;22.50;89.50;;;;;;5058021;28;19986;-77
2021/09/12 13:50:19;;;;;;;;;;;22.40;90.20;;;;;;5056096;28;20455;-77
2021/09/12 13:52:44;;;;;;;;;;;22.40;90.30;;;;;;5054556;28;19955;-75
2021/09/12 13:55:10;;;;;;;;;;;22.40;90.30;;;;;;5058871;28;19952;-76
2021/09/12 13:57:36;;;;;;;;;;;22.40;90.20;;;;;;5057607;28;19952;-77
2021/09/12 14:00:02;;;;;;;;;;;22.40;90.00;;;;;;5054385;28;19916;-77
2021/09/12 14:02:28;;;;;;;;;;;22.50;90.30;;;;;;5039991;28;19967;-77
2021/09/12 14:04:53;;;;;;;;;;;22.40;90.00;;;;;;5037239;28;19913;-77
2021/09/12 14:07:21;;;;;;;;;;;22.30;89.50;;;;;;5057601;28;19920;-76
2021/09/12 14:09:46;;;;;;;;;;;22.30;90.10;;;;;;5059541;28;19929;-77